LKTB/BRQ METAR and TAF weather

Enter ICAO airport designator
Station Type Date Time Source
LKTB METAR 2022/06/28 15:30 UTC NOAA

LKTB 281530Z 07007KT 040V110 9999 FEW045 28/18 Q1017 NOSIG


Station Type Date Time Source
LKTB Decoded METAR 2022/06/28 15:30 UTC NOAA

Brno / Turany, Czech Republic (LKTB) 49-09N 016-42E 246M
Jun 28, 2022 - 11:30 AM EDT / 2022.06.28 1530 UTC
Wind: from the ENE (070 degrees) at 8 MPH (7 KT) (direction variable):0
Visibility: greater than 7 mile(s):0
Sky conditions: mostly clear
Temperature: 82 F (28 C)
Dew Point: 64 F (18 C)
Relative Humidity: 54%
Pressure (altimeter): 30.03 in. Hg (1017 hPa)
ob: LKTB 281530Z 07007KT 040V110 9999 FEW045 28/18 Q1017 NOSIG
cycle: 15

Station Type Date Time Source
LKTB TAF 2022/06/28 12:06 UTC NOAA

TAF LKTB 281100Z 2812/2918 28008KT CAVOK
TEMPO 2812/2816 9999 FEW037TCU SCT040

Example: see airport list